createdAt,value
2023-02-02T00:00:00.845Z,82
2023-02-02T00:16:03.391Z,84
2023-02-02T00:31:05.656Z,86
2023-02-02T00:46:02.918Z,84
2023-02-02T01:00:05.059Z,83
2023-02-02T01:16:02.412Z,81
2023-02-02T01:31:04.725Z,79
2023-02-02T01:46:01.712Z,80
2023-02-02T02:00:03.816Z,81
2023-02-02T02:16:00.955Z,81
2023-02-02T02:31:02.964Z,80
2023-02-02T02:46:05.166Z,81
2023-02-02T03:00:02.349Z,82
2023-02-02T03:16:04.624Z,82
2023-02-02T03:31:01.981Z,82
2023-02-02T03:46:04.170Z,82
2023-02-02T04:00:01.229Z,82
2023-02-02T04:16:03.482Z,82
2023-02-02T04:31:05.756Z,82
2023-02-02T04:46:02.761Z,81
2023-02-02T05:00:04.687Z,81
2023-02-02T05:16:02.206Z,80
2023-02-02T05:31:04.440Z,79
2023-02-02T05:46:01.504Z,79
2023-02-02T06:00:03.435Z,78
2023-02-02T06:16:05.749Z,78
2023-02-02T06:31:02.879Z,79
2023-02-02T06:46:05.197Z,79
2023-02-02T07:00:02.367Z,78
2023-02-02T07:16:04.215Z,79
2023-02-02T07:31:03.722Z,78
2023-02-02T07:46:04.348Z,78
2023-02-02T08:00:05.545Z,78
2023-02-02T08:16:02.871Z,78
2023-02-02T08:31:05.115Z,77
2023-02-02T08:46:05.614Z,77
2023-02-02T09:00:04.339Z,77
2023-02-02T09:16:01.666Z,75
2023-02-02T09:31:03.927Z,75
2023-02-02T09:46:01.295Z,76
2023-02-02T10:00:02.912Z,76
2023-02-02T10:16:05.390Z,76
2023-02-02T10:31:02.646Z,76
2023-02-02T10:46:04.781Z,75
2023-02-02T11:00:01.708Z,75
2023-02-02T11:16:05.802Z,75
2023-02-02T11:31:07.585Z,74
2023-02-02T11:46:06.751Z,72
2023-02-02T12:00:04.159Z,71
2023-02-02T12:16:01.367Z,72
2023-02-02T12:31:03.769Z,73
2023-02-02T12:46:00.776Z,75
2023-02-02T13:00:02.800Z,75
2023-02-02T13:16:05.252Z,74
2023-02-02T13:31:05.279Z,74
2023-02-02T13:46:04.713Z,75
2023-02-02T14:00:01.486Z,76
2023-02-02T14:16:04.023Z,77
2023-02-02T14:31:01.006Z,77
2023-02-02T14:46:03.263Z,77
2023-02-02T15:00:05.457Z,78
2023-02-02T15:16:02.883Z,79
2023-02-02T15:31:04.984Z,79
2023-02-02T15:46:01.876Z,80
2023-02-02T16:00:04.024Z,81
2023-02-02T16:16:01.356Z,81
2023-02-02T16:31:03.685Z,81
2023-02-02T16:46:00.941Z,81
2023-02-02T17:00:02.703Z,81
2023-02-02T17:16:05.076Z,81
2023-02-02T17:31:02.509Z,81
2023-02-02T17:46:04.710Z,81
2023-02-02T18:00:01.664Z,81
2023-02-02T18:16:04.007Z,81
2023-02-02T18:31:01.260Z,81
2023-02-02T18:46:03.377Z,82
2023-02-02T19:00:05.431Z,82
2023-02-02T19:16:02.748Z,82
2023-02-02T19:31:05.097Z,83
2023-02-02T19:46:02.131Z,83
2023-02-02T20:00:04.281Z,82
2023-02-02T20:16:04.349Z,83
2023-02-02T20:31:04.040Z,83
2023-02-02T20:46:01.182Z,83
2023-02-02T21:00:03.337Z,83
2023-02-02T21:16:00.751Z,83
2023-02-02T21:31:02.978Z,84
2023-02-02T21:46:05.015Z,84
2023-02-02T22:00:01.980Z,85
2023-02-02T22:16:04.214Z,85
2023-02-02T22:31:01.515Z,86
2023-02-02T22:46:03.754Z,87
2023-02-02T23:00:05.607Z,87
2023-02-02T23:16:03.070Z,87
2023-02-02T23:31:05.378Z,87
2023-02-02T23:46:02.327Z,88
